Main page
METAR-TAF:

METAR-TAF

Airports :

Peer, Belgium

Kleine Brogel Air Base

latitude: 51-10N, longitude: 005-28E, elevation: 55 m

Current weather observation

The report was made 42 minutes ago, at 21:25 UTC
Wind 1 kt from variable directions
Temperature 2°C
Humidity 80%
Pressure 1017 hPa
Visibility: 9000 m

METAR: EBBL 192125Z AUTO VRB01KT 9000 OVC072/// 02/M01 Q1017 BLU

Time: 23:07 (22:07 UTC)

Forecast

The report was made 6 hours and 26 minutes ago, at 15:41 UTC
Forecast valid from 19 at 19 UTC to 20 at 07 UTC
Wind 3 kt from variable directions
Visibility 10 km or more
Scattered clouds at a height of 4000 ft
Broken clouds at a height of 6000 ft
Temporary
from 20 at 04 UTC to 20 at 07 UTC
Visibility: 6000 m

TAF: EBBL 191541Z 1919/2007 VRB03KT 9999 SCT040 BKN060 TEMPO 2004/2007 6000

Weather observations and forecasts of more than 4000 airports (METAR and TAF reports).

The available stations are represented by yellow and red dots on the map.

Hover mouse over dot to see the name of the station.

Then click to see weather observations and forecasts.

To change the map : click on the green buttons with a black cross to zoom in, on the green button with a dash to zoom out, or on the green arrows for adjacent maps.


METAR-TAF: